sensor_id;sensor_type;location;lat;lon;timestamp;P1;durP1;ratioP1;P2;durP2;ratioP2
16015;SDS011;8112;53.592;10.184;2024-01-30T00:03:52;8.03;;;6.30;;
16015;SDS011;8112;53.592;10.184;2024-01-30T00:08:55;8.70;;;6.53;;
16015;SDS011;8112;53.592;10.184;2024-01-30T00:13:57;10.70;;;6.87;;
16015;SDS011;8112;53.592;10.184;2024-01-30T00:18:59;7.17;;;5.70;;
16015;SDS011;8112;53.592;10.184;2024-01-30T00:24:03;8.13;;;6.90;;
16015;SDS011;8112;53.592;10.184;2024-01-30T00:29:05;6.67;;;5.47;;
16015;SDS011;8112;53.592;10.184;2024-01-30T00:34:07;8.80;;;6.33;;
16015;SDS011;8112;53.592;10.184;2024-01-30T00:39:10;6.53;;;5.70;;
16015;SDS011;8112;53.592;10.184;2024-01-30T00:44:12;8.87;;;6.43;;
16015;SDS011;8112;53.592;10.184;2024-01-30T00:49:13;7.03;;;6.17;;
16015;SDS011;8112;53.592;10.184;2024-01-30T00:54:17;8.30;;;6.10;;
16015;SDS011;8112;53.592;10.184;2024-01-30T00:59:18;8.40;;;6.60;;
16015;SDS011;8112;53.592;10.184;2024-01-30T01:04:20;7.47;;;6.00;;
16015;SDS011;8112;53.592;10.184;2024-01-30T01:09:23;8.53;;;6.47;;
16015;SDS011;8112;53.592;10.184;2024-01-30T01:14:25;8.60;;;5.90;;
16015;SDS011;8112;53.592;10.184;2024-01-30T01:19:27;7.30;;;5.93;;
16015;SDS011;8112;53.592;10.184;2024-01-30T01:24:30;7.40;;;6.17;;
16015;SDS011;8112;53.592;10.184;2024-01-30T01:29:32;7.33;;;6.23;;
16015;SDS011;8112;53.592;10.184;2024-01-30T01:34:34;6.40;;;5.70;;
16015;SDS011;8112;53.592;10.184;2024-01-30T01:39:37;7.67;;;6.13;;
16015;SDS011;8112;53.592;10.184;2024-01-30T01:44:39;8.63;;;6.23;;
16015;SDS011;8112;53.592;10.184;2024-01-30T01:49:40;6.90;;;5.67;;
16015;SDS011;8112;53.592;10.184;2024-01-30T01:54:47;7.37;;;5.63;;
16015;SDS011;8112;53.592;10.184;2024-01-30T01:59:49;9.87;;;6.17;;
16015;SDS011;8112;53.592;10.184;2024-01-30T02:04:51;7.73;;;6.10;;
16015;SDS011;8112;53.592;10.184;2024-01-30T02:09:54;7.90;;;6.50;;
16015;SDS011;8112;53.592;10.184;2024-01-30T02:14:56;6.60;;;5.70;;
16015;SDS011;8112;53.592;10.184;2024-01-30T02:19:58;7.40;;;6.03;;
16015;SDS011;8112;53.592;10.184;2024-01-30T02:25:01;9.03;;;6.53;;
16015;SDS011;8112;53.592;10.184;2024-01-30T02:30:03;8.17;;;6.40;;
16015;SDS011;8112;53.592;10.184;2024-01-30T02:35:06;8.67;;;7.07;;
16015;SDS011;8112;53.592;10.184;2024-01-30T02:40:09;9.77;;;6.53;;
16015;SDS011;8112;53.592;10.184;2024-01-30T02:45:12;8.60;;;6.10;;
16015;SDS011;8112;53.592;10.184;2024-01-30T02:50:14;9.23;;;6.40;;
16015;SDS011;8112;53.592;10.184;2024-01-30T02:55:17;6.93;;;6.23;;
16015;SDS011;8112;53.592;10.184;2024-01-30T03:00:20;10.93;;;6.53;;
16015;SDS011;8112;53.592;10.184;2024-01-30T03:05:21;9.47;;;6.90;;
16015;SDS011;8112;53.592;10.184;2024-01-30T03:10:24;10.83;;;8.20;;
16015;SDS011;8112;53.592;10.184;2024-01-30T03:15:26;17.13;;;11.53;;
16015;SDS011;8112;53.592;10.184;2024-01-30T03:20:28;17.40;;;11.27;;
16015;SDS011;8112;53.592;10.184;2024-01-30T03:25:31;15.80;;;9.37;;
16015;SDS011;8112;53.592;10.184;2024-01-30T03:30:34;11.83;;;8.80;;
16015;SDS011;8112;53.592;10.184;2024-01-30T03:35:36;9.50;;;7.60;;
16015;SDS011;8112;53.592;10.184;2024-01-30T03:40:39;12.23;;;7.73;;
16015;SDS011;8112;53.592;10.184;2024-01-30T03:45:40;10.80;;;7.33;;
16015;SDS011;8112;53.592;10.184;2024-01-30T03:50:42;8.80;;;7.13;;
16015;SDS011;8112;53.592;10.184;2024-01-30T03:55:45;9.07;;;6.93;;
16015;SDS011;8112;53.592;10.184;2024-01-30T04:00:47;7.97;;;6.70;;
16015;SDS011;8112;53.592;10.184;2024-01-30T04:05:48;9.83;;;6.87;;
16015;SDS011;8112;53.592;10.184;2024-01-30T04:10:52;10.90;;;7.53;;
16015;SDS011;8112;53.592;10.184;2024-01-30T04:15:53;8.73;;;6.80;;
16015;SDS011;8112;53.592;10.184;2024-01-30T04:20:56;9.47;;;7.43;;
16015;SDS011;8112;53.592;10.184;2024-01-30T04:25:59;10.23;;;8.10;;
16015;SDS011;8112;53.592;10.184;2024-01-30T04:31:01;11.87;;;8.13;;
16015;SDS011;8112;53.592;10.184;2024-01-30T04:36:03;9.63;;;7.97;;
16015;SDS011;8112;53.592;10.184;2024-01-30T04:41:09;9.60;;;7.20;;
16015;SDS011;8112;53.592;10.184;2024-01-30T04:46:11;8.93;;;7.90;;
16015;SDS011;8112;53.592;10.184;2024-01-30T04:51:13;8.67;;;7.33;;
16015;SDS011;8112;53.592;10.184;2024-01-30T04:56:16;9.50;;;7.60;;
16015;SDS011;8112;53.592;10.184;2024-01-30T05:01:17;12.00;;;8.33;;
16015;SDS011;8112;53.592;10.184;2024-01-30T05:06:25;9.87;;;7.37;;
16015;SDS011;8112;53.592;10.184;2024-01-30T05:11:29;10.57;;;8.23;;
16015;SDS011;8112;53.592;10.184;2024-01-30T05:16:30;9.27;;;7.90;;
16015;SDS011;8112;53.592;10.184;2024-01-30T05:21:33;10.53;;;8.30;;
16015;SDS011;8112;53.592;10.184;2024-01-30T05:26:36;10.47;;;7.90;;
16015;SDS011;8112;53.592;10.184;2024-01-30T05:31:38;10.63;;;8.20;;
16015;SDS011;8112;53.592;10.184;2024-01-30T05:36:39;10.60;;;8.40;;
16015;SDS011;8112;53.592;10.184;2024-01-30T05:41:42;10.60;;;8.37;;
16015;SDS011;8112;53.592;10.184;2024-01-30T05:46:44;13.00;;;8.20;;
16015;SDS011;8112;53.592;10.184;2024-01-30T05:51:46;9.90;;;7.97;;
16015;SDS011;8112;53.592;10.184;2024-01-30T05:56:50;11.13;;;9.00;;
16015;SDS011;8112;53.592;10.184;2024-01-30T06:01:51;13.17;;;9.10;;
16015;SDS011;8112;53.592;10.184;2024-01-30T06:06:54;11.73;;;8.83;;
16015;SDS011;8112;53.592;10.184;2024-01-30T06:11:57;11.87;;;8.17;;
16015;SDS011;8112;53.592;10.184;2024-01-30T06:16:59;10.97;;;8.60;;
16015;SDS011;8112;53.592;10.184;2024-01-30T06:22:00;12.10;;;9.40;;
16015;SDS011;8112;53.592;10.184;2024-01-30T06:27:06;11.50;;;8.50;;
16015;SDS011;8112;53.592;10.184;2024-01-30T06:32:07;12.03;;;8.93;;
16015;SDS011;8112;53.592;10.184;2024-01-30T06:37:09;11.97;;;8.50;;
16015;SDS011;8112;53.592;10.184;2024-01-30T06:42:12;13.17;;;10.27;;
16015;SDS011;8112;53.592;10.184;2024-01-30T06:47:14;14.27;;;10.53;;
16015;SDS011;8112;53.592;10.184;2024-01-30T06:52:16;19.47;;;10.70;;
16015;SDS011;8112;53.592;10.184;2024-01-30T06:57:19;14.23;;;9.60;;
16015;SDS011;8112;53.592;10.184;2024-01-30T07:02:20;19.33;;;11.17;;
16015;SDS011;8112;53.592;10.184;2024-01-30T07:07:22;13.30;;;9.53;;
16015;SDS011;8112;53.592;10.184;2024-01-30T07:12:25;13.77;;;9.47;;
16015;SDS011;8112;53.592;10.184;2024-01-30T07:17:27;19.53;;;9.37;;
16015;SDS011;8112;53.592;10.184;2024-01-30T07:22:28;15.37;;;9.43;;
16015;SDS011;8112;53.592;10.184;2024-01-30T07:27:32;12.57;;;9.30;;
16015;SDS011;8112;53.592;10.184;2024-01-30T07:32:34;15.43;;;10.77;;
16015;SDS011;8112;53.592;10.184;2024-01-30T07:37:35;15.63;;;10.17;;
16015;SDS011;8112;53.592;10.184;2024-01-30T07:42:38;14.77;;;9.80;;
16015;SDS011;8112;53.592;10.184;2024-01-30T07:47:40;14.87;;;10.63;;
16015;SDS011;8112;53.592;10.184;2024-01-30T07:52:42;12.03;;;10.20;;
16015;SDS011;8112;53.592;10.184;2024-01-30T07:57:46;17.03;;;11.47;;
16015;SDS011;8112;53.592;10.184;2024-01-30T08:02:47;15.07;;;10.63;;
16015;SDS011;8112;53.592;10.184;2024-01-30T08:07:49;13.67;;;11.37;;
16015;SDS011;8112;53.592;10.184;2024-01-30T08:12:53;18.63;;;12.00;;
16015;SDS011;8112;53.592;10.184;2024-01-30T08:17:54;20.07;;;12.67;;
16015;SDS011;8112;53.592;10.184;2024-01-30T08:22:58;15.90;;;13.20;;
16015;SDS011;8112;53.592;10.184;2024-01-30T08:28:02;13.90;;;10.90;;
16015;SDS011;8112;53.592;10.184;2024-01-30T08:33:04;15.97;;;10.80;;
16015;SDS011;8112;53.592;10.184;2024-01-30T08:38:06;14.67;;;11.10;;
16015;SDS011;8112;53.592;10.184;2024-01-30T08:43:09;15.47;;;12.23;;
16015;SDS011;8112;53.592;10.184;2024-01-30T08:48:10;14.40;;;10.80;;
16015;SDS011;8112;53.592;10.184;2024-01-30T08:53:12;14.70;;;11.37;;
16015;SDS011;8112;53.592;10.184;2024-01-30T08:58:15;15.87;;;11.37;;
16015;SDS011;8112;53.592;10.184;2024-01-30T09:03:18;15.20;;;11.90;;
16015;SDS011;8112;53.592;10.184;2024-01-30T09:08:20;14.10;;;11.07;;
16015;SDS011;8112;53.592;10.184;2024-01-30T09:13:23;15.83;;;11.33;;
16015;SDS011;8112;53.592;10.184;2024-01-30T09:18:25;14.80;;;11.77;;
16015;SDS011;8112;53.592;10.184;2024-01-30T09:23:26;16.37;;;11.30;;
16015;SDS011;8112;53.592;10.184;2024-01-30T09:28:30;15.33;;;11.50;;
16015;SDS011;8112;53.592;10.184;2024-01-30T09:33:32;17.43;;;12.17;;
16015;SDS011;8112;53.592;10.184;2024-01-30T09:38:33;17.13;;;11.13;;
16015;SDS011;8112;53.592;10.184;2024-01-30T09:43:36;16.43;;;10.77;;
16015;SDS011;8112;53.592;10.184;2024-01-30T09:48:39;14.87;;;10.70;;
16015;SDS011;8112;53.592;10.184;2024-01-30T09:53:42;14.33;;;10.43;;
16015;SDS011;8112;53.592;10.184;2024-01-30T09:58:46;14.77;;;10.57;;
16015;SDS011;8112;53.592;10.184;2024-01-30T10:03:50;14.27;;;10.33;;
16015;SDS011;8112;53.592;10.184;2024-01-30T10:08:52;14.60;;;11.20;;
16015;SDS011;8112;53.592;10.184;2024-01-30T10:13:55;14.03;;;10.50;;
16015;SDS011;8112;53.592;10.184;2024-01-30T10:18:56;13.07;;;10.40;;
16015;SDS011;8112;53.592;10.184;2024-01-30T10:23:58;12.90;;;10.30;;
16015;SDS011;8112;53.592;10.184;2024-01-30T10:29:02;12.33;;;9.90;;
16015;SDS011;8112;53.592;10.184;2024-01-30T10:34:03;12.00;;;9.10;;
16015;SDS011;8112;53.592;10.184;2024-01-30T10:39:05;11.97;;;9.07;;
16015;SDS011;8112;53.592;10.184;2024-01-30T10:44:10;11.93;;;9.10;;
16015;SDS011;8112;53.592;10.184;2024-01-30T10:49:12;12.10;;;8.87;;
16015;SDS011;8112;53.592;10.184;2024-01-30T10:54:15;14.03;;;9.10;;
16015;SDS011;8112;53.592;10.184;2024-01-30T10:59:20;11.93;;;9.50;;
16015;SDS011;8112;53.592;10.184;2024-01-30T11:04:24;11.73;;;9.07;;
16015;SDS011;8112;53.592;10.184;2024-01-30T11:09:28;12.80;;;9.00;;
16015;SDS011;8112;53.592;10.184;2024-01-30T11:14:32;12.27;;;9.73;;
16015;SDS011;8112;53.592;10.184;2024-01-30T11:19:34;14.10;;;7.97;;
16015;SDS011;8112;53.592;10.184;2024-01-30T11:24:38;11.67;;;9.13;;
16015;SDS011;8112;53.592;10.184;2024-01-30T11:29:42;11.17;;;8.70;;
16015;SDS011;8112;53.592;10.184;2024-01-30T11:34:44;12.70;;;8.77;;
16015;SDS011;8112;53.592;10.184;2024-01-30T11:39:47;10.90;;;8.80;;
16015;SDS011;8112;53.592;10.184;2024-01-30T11:44:50;11.43;;;8.73;;
16015;SDS011;8112;53.592;10.184;2024-01-30T11:49:52;13.13;;;8.93;;
16015;SDS011;8112;53.592;10.184;2024-01-30T11:54:54;10.80;;;9.27;;
16015;SDS011;8112;53.592;10.184;2024-01-30T11:59:57;10.37;;;8.47;;
16015;SDS011;8112;53.592;10.184;2024-01-30T12:05:02;11.07;;;8.87;;
16015;SDS011;8112;53.592;10.184;2024-01-30T12:10:05;10.87;;;8.63;;
16015;SDS011;8112;53.592;10.184;2024-01-30T12:15:09;12.10;;;7.87;;
16015;SDS011;8112;53.592;10.184;2024-01-30T12:20:14;10.70;;;7.93;;
16015;SDS011;8112;53.592;10.184;2024-01-30T12:25:17;10.63;;;8.20;;
16015;SDS011;8112;53.592;10.184;2024-01-30T12:30:24;10.47;;;8.73;;
16015;SDS011;8112;53.592;10.184;2024-01-30T12:35:26;11.17;;;8.83;;
16015;SDS011;8112;53.592;10.184;2024-01-30T12:40:28;10.47;;;8.27;;
16015;SDS011;8112;53.592;10.184;2024-01-30T12:45:31;13.10;;;10.07;;
16015;SDS011;8112;53.592;10.184;2024-01-30T12:50:32;13.63;;;9.20;;
16015;SDS011;8112;53.592;10.184;2024-01-30T12:55:34;11.40;;;9.13;;
16015;SDS011;8112;53.592;10.184;2024-01-30T13:00:37;12.10;;;8.90;;
16015;SDS011;8112;53.592;10.184;2024-01-30T13:05:39;10.77;;;8.43;;
16015;SDS011;8112;53.592;10.184;2024-01-30T13:10:40;10.57;;;8.27;;
16015;SDS011;8112;53.592;10.184;2024-01-30T13:15:43;9.67;;;7.90;;
16015;SDS011;8112;53.592;10.184;2024-01-30T13:20:45;10.17;;;8.80;;
16015;SDS011;8112;53.592;10.184;2024-01-30T13:25:47;10.63;;;8.93;;
16015;SDS011;8112;53.592;10.184;2024-01-30T13:30:50;10.37;;;8.50;;
16015;SDS011;8112;53.592;10.184;2024-01-30T13:35:52;11.10;;;8.77;;
16015;SDS011;8112;53.592;10.184;2024-01-30T13:40:53;12.73;;;8.20;;
16015;SDS011;8112;53.592;10.184;2024-01-30T13:45:56;11.60;;;8.53;;
16015;SDS011;8112;53.592;10.184;2024-01-30T13:50:59;12.13;;;7.97;;
16015;SDS011;8112;53.592;10.184;2024-01-30T13:56:01;11.50;;;8.40;;
16015;SDS011;8112;53.592;10.184;2024-01-30T14:01:04;9.87;;;7.83;;
16015;SDS011;8112;53.592;10.184;2024-01-30T14:06:05;9.33;;;7.60;;
16015;SDS011;8112;53.592;10.184;2024-01-30T14:11:07;12.47;;;8.07;;
16015;SDS011;8112;53.592;10.184;2024-01-30T14:16:11;9.97;;;8.43;;
16015;SDS011;8112;53.592;10.184;2024-01-30T14:21:12;12.13;;;8.67;;
16015;SDS011;8112;53.592;10.184;2024-01-30T14:26:14;12.17;;;8.00;;
16015;SDS011;8112;53.592;10.184;2024-01-30T14:31:17;11.30;;;7.53;;
16015;SDS011;8112;53.592;10.184;2024-01-30T14:36:20;11.30;;;7.90;;
16015;SDS011;8112;53.592;10.184;2024-01-30T14:41:22;11.97;;;8.07;;
16015;SDS011;8112;53.592;10.184;2024-01-30T14:46:26;10.60;;;8.07;;
16015;SDS011;8112;53.592;10.184;2024-01-30T14:51:27;11.53;;;7.80;;
16015;SDS011;8112;53.592;10.184;2024-01-30T14:56:30;13.10;;;9.03;;
16015;SDS011;8112;53.592;10.184;2024-01-30T15:01:34;10.10;;;7.73;;
16015;SDS011;8112;53.592;10.184;2024-01-30T15:06:35;9.30;;;7.63;;
16015;SDS011;8112;53.592;10.184;2024-01-30T15:11:37;9.97;;;7.47;;
16015;SDS011;8112;53.592;10.184;2024-01-30T15:16:40;11.37;;;7.73;;
16015;SDS011;8112;53.592;10.184;2024-01-30T15:21:42;13.13;;;8.30;;
16015;SDS011;8112;53.592;10.184;2024-01-30T15:26:44;10.50;;;7.70;;
16015;SDS011;8112;53.592;10.184;2024-01-30T15:31:47;11.63;;;7.90;;
16015;SDS011;8112;53.592;10.184;2024-01-30T15:36:49;10.13;;;7.97;;
16015;SDS011;8112;53.592;10.184;2024-01-30T15:41:50;9.83;;;7.27;;
16015;SDS011;8112;53.592;10.184;2024-01-30T15:46:54;10.97;;;7.83;;
16015;SDS011;8112;53.592;10.184;2024-01-30T15:51:56;13.50;;;8.03;;
16015;SDS011;8112;53.592;10.184;2024-01-30T15:56:58;16.07;;;7.77;;
16015;SDS011;8112;53.592;10.184;2024-01-30T16:02:01;10.57;;;8.70;;
16015;SDS011;8112;53.592;10.184;2024-01-30T16:07:03;11.93;;;8.40;;
16015;SDS011;8112;53.592;10.184;2024-01-30T16:12:05;12.67;;;8.60;;
16015;SDS011;8112;53.592;10.184;2024-01-30T16:17:08;11.80;;;8.37;;
16015;SDS011;8112;53.592;10.184;2024-01-30T16:22:10;13.53;;;9.73;;
16015;SDS011;8112;53.592;10.184;2024-01-30T16:27:12;11.27;;;8.80;;
16015;SDS011;8112;53.592;10.184;2024-01-30T16:32:15;11.10;;;9.23;;
16015;SDS011;8112;53.592;10.184;2024-01-30T16:37:16;12.70;;;9.00;;
16015;SDS011;8112;53.592;10.184;2024-01-30T16:42:18;12.90;;;9.40;;
16015;SDS011;8112;53.592;10.184;2024-01-30T16:47:21;13.23;;;9.40;;
16015;SDS011;8112;53.592;10.184;2024-01-30T16:52:23;14.17;;;8.93;;
16015;SDS011;8112;53.592;10.184;2024-01-30T16:57:25;9.87;;;8.83;;
16015;SDS011;8112;53.592;10.184;2024-01-30T17:02:28;12.23;;;8.53;;
16015;SDS011;8112;53.592;10.184;2024-01-30T17:07:30;11.80;;;8.57;;
16015;SDS011;8112;53.592;10.184;2024-01-30T17:12:35;15.17;;;9.70;;
16015;SDS011;8112;53.592;10.184;2024-01-30T17:17:38;9.70;;;8.33;;
16015;SDS011;8112;53.592;10.184;2024-01-30T17:22:40;13.20;;;9.57;;
16015;SDS011;8112;53.592;10.184;2024-01-30T17:27:41;13.47;;;9.47;;
16015;SDS011;8112;53.592;10.184;2024-01-30T17:32:46;14.50;;;8.83;;
16015;SDS011;8112;53.592;10.184;2024-01-30T17:37:47;12.33;;;8.33;;
16015;SDS011;8112;53.592;10.184;2024-01-30T17:42:49;11.50;;;9.10;;
16015;SDS011;8112;53.592;10.184;2024-01-30T17:47:52;13.70;;;9.40;;
16015;SDS011;8112;53.592;10.184;2024-01-30T17:52:54;11.20;;;8.20;;
16015;SDS011;8112;53.592;10.184;2024-01-30T17:57:56;15.20;;;9.10;;
16015;SDS011;8112;53.592;10.184;2024-01-30T18:02:59;13.70;;;9.03;;
16015;SDS011;8112;53.592;10.184;2024-01-30T18:08:04;10.57;;;9.00;;
16015;SDS011;8112;53.592;10.184;2024-01-30T18:13:07;12.03;;;10.10;;
16015;SDS011;8112;53.592;10.184;2024-01-30T18:18:10;11.70;;;8.67;;
16015;SDS011;8112;53.592;10.184;2024-01-30T18:23:13;12.70;;;8.70;;
16015;SDS011;8112;53.592;10.184;2024-01-30T18:28:15;10.50;;;7.37;;
16015;SDS011;8112;53.592;10.184;2024-01-30T18:33:18;12.47;;;7.97;;
16015;SDS011;8112;53.592;10.184;2024-01-30T18:38:19;10.03;;;8.13;;
16015;SDS011;8112;53.592;10.184;2024-01-30T18:43:22;10.83;;;7.37;;
16015;SDS011;8112;53.592;10.184;2024-01-30T18:48:25;8.83;;;7.43;;
16015;SDS011;8112;53.592;10.184;2024-01-30T18:53:26;10.53;;;7.50;;
16015;SDS011;8112;53.592;10.184;2024-01-30T18:58:28;12.20;;;7.10;;
16015;SDS011;8112;53.592;10.184;2024-01-30T19:03:31;11.67;;;7.23;;
16015;SDS011;8112;53.592;10.184;2024-01-30T19:08:33;9.20;;;6.63;;
16015;SDS011;8112;53.592;10.184;2024-01-30T19:13:34;9.37;;;7.03;;
16015;SDS011;8112;53.592;10.184;2024-01-30T19:18:37;10.30;;;6.23;;
16015;SDS011;8112;53.592;10.184;2024-01-30T19:23:39;8.37;;;5.37;;
16015;SDS011;8112;53.592;10.184;2024-01-30T19:28:41;7.57;;;5.40;;
16015;SDS011;8112;53.592;10.184;2024-01-30T19:33:44;7.60;;;4.93;;
16015;SDS011;8112;53.592;10.184;2024-01-30T19:38:46;6.10;;;3.57;;
16015;SDS011;8112;53.592;10.184;2024-01-30T19:43:48;5.93;;;3.57;;
16015;SDS011;8112;53.592;10.184;2024-01-30T19:48:51;3.67;;;2.43;;
16015;SDS011;8112;53.592;10.184;2024-01-30T19:53:52;3.77;;;2.10;;
16015;SDS011;8112;53.592;10.184;2024-01-30T19:58:54;3.93;;;2.47;;
16015;SDS011;8112;53.592;10.184;2024-01-30T20:03:57;3.53;;;2.27;;
16015;SDS011;8112;53.592;10.184;2024-01-30T20:08:59;3.63;;;2.87;;
16015;SDS011;8112;53.592;10.184;2024-01-30T20:14:01;3.60;;;2.70;;
16015;SDS011;8112;53.592;10.184;2024-01-30T20:19:04;3.53;;;2.93;;
16015;SDS011;8112;53.592;10.184;2024-01-30T20:24:06;3.70;;;3.13;;
16015;SDS011;8112;53.592;10.184;2024-01-30T20:29:08;3.93;;;3.03;;
16015;SDS011;8112;53.592;10.184;2024-01-30T20:34:11;5.37;;;3.80;;
16015;SDS011;8112;53.592;10.184;2024-01-30T20:39:13;5.23;;;3.80;;
16015;SDS011;8112;53.592;10.184;2024-01-30T20:44:15;7.43;;;4.13;;
16015;SDS011;8112;53.592;10.184;2024-01-30T20:49:20;5.17;;;3.80;;
16015;SDS011;8112;53.592;10.184;2024-01-30T20:54:22;4.90;;;4.13;;
16015;SDS011;8112;53.592;10.184;2024-01-30T20:59:23;4.83;;;3.90;;
16015;SDS011;8112;53.592;10.184;2024-01-30T21:04:27;5.33;;;4.50;;
16015;SDS011;8112;53.592;10.184;2024-01-30T21:09:28;7.27;;;4.73;;
16015;SDS011;8112;53.592;10.184;2024-01-30T21:14:30;6.23;;;4.33;;
16015;SDS011;8112;53.592;10.184;2024-01-30T21:19:33;4.57;;;3.80;;
16015;SDS011;8112;53.592;10.184;2024-01-30T21:24:35;5.43;;;4.30;;
16015;SDS011;8112;53.592;10.184;2024-01-30T21:29:36;4.83;;;4.33;;
16015;SDS011;8112;53.592;10.184;2024-01-30T21:34:41;5.10;;;4.30;;
16015;SDS011;8112;53.592;10.184;2024-01-30T21:39:43;4.60;;;4.00;;
16015;SDS011;8112;53.592;10.184;2024-01-30T21:44:45;4.83;;;3.93;;
16015;SDS011;8112;53.592;10.184;2024-01-30T21:49:48;4.90;;;3.93;;
16015;SDS011;8112;53.592;10.184;2024-01-30T21:54:50;3.90;;;3.50;;
16015;SDS011;8112;53.592;10.184;2024-01-30T21:59:52;3.40;;;2.90;;
16015;SDS011;8112;53.592;10.184;2024-01-30T22:04:55;3.73;;;2.80;;
16015;SDS011;8112;53.592;10.184;2024-01-30T22:09:57;2.60;;;2.40;;
16015;SDS011;8112;53.592;10.184;2024-01-30T22:14:58;2.90;;;2.07;;
16015;SDS011;8112;53.592;10.184;2024-01-30T22:20:02;2.43;;;2.20;;
16015;SDS011;8112;53.592;10.184;2024-01-30T22:25:05;2.37;;;2.17;;
16015;SDS011;8112;53.592;10.184;2024-01-30T22:30:07;2.53;;;2.33;;
16015;SDS011;8112;53.592;10.184;2024-01-30T22:35:11;3.13;;;1.90;;
16015;SDS011;8112;53.592;10.184;2024-01-30T22:40:13;1.90;;;1.70;;
16015;SDS011;8112;53.592;10.184;2024-01-30T22:45:15;1.90;;;1.50;;
16015;SDS011;8112;53.592;10.184;2024-01-30T22:50:18;4.10;;;1.43;;
16015;SDS011;8112;53.592;10.184;2024-01-30T22:55:20;1.60;;;1.33;;
16015;SDS011;8112;53.592;10.184;2024-01-30T23:00:22;3.20;;;1.27;;
16015;SDS011;8112;53.592;10.184;2024-01-30T23:05:27;2.73;;;1.30;;
16015;SDS011;8112;53.592;10.184;2024-01-30T23:10:30;2.20;;;1.53;;
16015;SDS011;8112;53.592;10.184;2024-01-30T23:15:32;2.47;;;1.50;;
16015;SDS011;8112;53.592;10.184;2024-01-30T23:20:36;4.70;;;1.80;;
16015;SDS011;8112;53.592;10.184;2024-01-30T23:25:38;3.07;;;1.20;;
16015;SDS011;8112;53.592;10.184;2024-01-30T23:30:40;3.60;;;1.37;;
16015;SDS011;8112;53.592;10.184;2024-01-30T23:35:44;2.90;;;1.30;;
16015;SDS011;8112;53.592;10.184;2024-01-30T23:40:46;2.73;;;1.03;;
16015;SDS011;8112;53.592;10.184;2024-01-30T23:45:48;1.80;;;1.20;;
16015;SDS011;8112;53.592;10.184;2024-01-30T23:50:51;2.23;;;1.17;;
16015;SDS011;8112;53.592;10.184;2024-01-30T23:55:53;2.23;;;1.10;;
